sensor_id;sensor_type;location;lat;lon;timestamp;P1;durP1;ratioP1;P2;durP2;ratioP2
7931;SDS011;4011;49.424;10.894;2023-06-24T00:00:18;4.50;;;3.33;;
7931;SDS011;4011;49.424;10.894;2023-06-24T00:05:40;5.25;;;3.72;;
7931;SDS011;4011;49.424;10.894;2023-06-24T00:11:03;4.43;;;3.20;;
7931;SDS011;4011;49.424;10.894;2023-06-24T00:16:27;3.92;;;3.13;;
7931;SDS011;4011;49.424;10.894;2023-06-24T00:21:48;4.35;;;3.22;;
7931;SDS011;4011;49.424;10.894;2023-06-24T00:27:11;4.68;;;3.58;;
7931;SDS011;4011;49.424;10.894;2023-06-24T00:32:33;4.35;;;3.00;;
7931;SDS011;4011;49.424;10.894;2023-06-24T00:37:55;4.88;;;3.10;;
7931;SDS011;4011;49.424;10.894;2023-06-24T00:49:06;4.47;;;3.38;;
7931;SDS011;4011;49.424;10.894;2023-06-24T00:54:27;4.10;;;3.13;;
7931;SDS011;4011;49.424;10.894;2023-06-24T00:59:51;4.22;;;3.28;;
7931;SDS011;4011;49.424;10.894;2023-06-24T01:05:14;5.32;;;3.63;;
7931;SDS011;4011;49.424;10.894;2023-06-24T01:10:36;4.53;;;3.08;;
7931;SDS011;4011;49.424;10.894;2023-06-24T01:16:03;4.78;;;3.33;;
7931;SDS011;4011;49.424;10.894;2023-06-24T01:21:32;5.10;;;3.78;;
7931;SDS011;4011;49.424;10.894;2023-06-24T01:32:42;4.47;;;3.40;;
7931;SDS011;4011;49.424;10.894;2023-06-24T01:38:07;4.95;;;3.72;;
7931;SDS011;4011;49.424;10.894;2023-06-24T01:43:29;4.72;;;3.40;;
7931;SDS011;4011;49.424;10.894;2023-06-24T01:48:54;5.05;;;3.17;;
7931;SDS011;4011;49.424;10.894;2023-06-24T01:54:16;4.38;;;3.40;;
7931;SDS011;4011;49.424;10.894;2023-06-24T01:59:41;4.55;;;3.42;;
7931;SDS011;4011;49.424;10.894;2023-06-24T02:05:05;4.18;;;3.17;;
7931;SDS011;4011;49.424;10.894;2023-06-24T02:10:28;4.70;;;3.40;;
7931;SDS011;4011;49.424;10.894;2023-06-24T02:15:51;5.45;;;3.88;;
7931;SDS011;4011;49.424;10.894;2023-06-24T02:21:14;4.40;;;3.42;;
7931;SDS011;4011;49.424;10.894;2023-06-24T02:26:38;5.10;;;3.38;;
7931;SDS011;4011;49.424;10.894;2023-06-24T02:32:01;4.43;;;3.20;;
7931;SDS011;4011;49.424;10.894;2023-06-24T02:37:24;4.90;;;3.63;;
7931;SDS011;4011;49.424;10.894;2023-06-24T02:42:45;4.20;;;3.42;;
7931;SDS011;4011;49.424;10.894;2023-06-24T02:48:07;5.30;;;3.65;;
7931;SDS011;4011;49.424;10.894;2023-06-24T02:53:31;5.20;;;3.30;;
7931;SDS011;4011;49.424;10.894;2023-06-24T02:58:52;4.68;;;3.38;;
7931;SDS011;4011;49.424;10.894;2023-06-24T03:04:14;4.43;;;3.80;;
7931;SDS011;4011;49.424;10.894;2023-06-24T03:09:37;5.13;;;3.42;;
7931;SDS011;4011;49.424;10.894;2023-06-24T03:14:58;5.28;;;3.35;;
7931;SDS011;4011;49.424;10.894;2023-06-24T03:20:21;4.90;;;3.15;;
7931;SDS011;4011;49.424;10.894;2023-06-24T03:25:45;4.28;;;3.55;;
7931;SDS011;4011;49.424;10.894;2023-06-24T03:31:07;4.03;;;3.13;;
7931;SDS011;4011;49.424;10.894;2023-06-24T03:36:28;4.85;;;3.60;;
7931;SDS011;4011;49.424;10.894;2023-06-24T03:41:51;4.38;;;3.13;;
7931;SDS011;4011;49.424;10.894;2023-06-24T03:47:13;4.60;;;3.60;;
7931;SDS011;4011;49.424;10.894;2023-06-24T03:52:36;5.03;;;3.65;;
7931;SDS011;4011;49.424;10.894;2023-06-24T03:57:59;5.18;;;3.20;;
7931;SDS011;4011;49.424;10.894;2023-06-24T04:03:21;4.03;;;3.03;;
7931;SDS011;4011;49.424;10.894;2023-06-24T04:08:43;5.55;;;3.55;;
7931;SDS011;4011;49.424;10.894;2023-06-24T04:14:06;5.50;;;3.80;;
7931;SDS011;4011;49.424;10.894;2023-06-24T04:19:29;9.82;;;4.05;;
7931;SDS011;4011;49.424;10.894;2023-06-24T04:24:50;8.65;;;4.40;;
7931;SDS011;4011;49.424;10.894;2023-06-24T04:30:13;7.90;;;3.83;;
7931;SDS011;4011;49.424;10.894;2023-06-24T04:35:35;6.65;;;4.25;;
7931;SDS011;4011;49.424;10.894;2023-06-24T04:40:56;6.03;;;4.00;;
7931;SDS011;4011;49.424;10.894;2023-06-24T04:46:21;6.30;;;3.70;;
7931;SDS011;4011;49.424;10.894;2023-06-24T04:51:42;6.05;;;3.95;;
7931;SDS011;4011;49.424;10.894;2023-06-24T04:57:05;8.13;;;4.30;;
7931;SDS011;4011;49.424;10.894;2023-06-24T05:02:28;5.78;;;4.00;;
7931;SDS011;4011;49.424;10.894;2023-06-24T05:07:50;10.55;;;3.42;;
7931;SDS011;4011;49.424;10.894;2023-06-24T05:13:13;5.90;;;3.55;;
7931;SDS011;4011;49.424;10.894;2023-06-24T05:18:36;4.95;;;3.88;;
7931;SDS011;4011;49.424;10.894;2023-06-24T05:23:58;5.30;;;4.03;;
7931;SDS011;4011;49.424;10.894;2023-06-24T05:29:19;5.68;;;3.58;;
7931;SDS011;4011;49.424;10.894;2023-06-24T05:34:42;5.30;;;3.47;;
7931;SDS011;4011;49.424;10.894;2023-06-24T05:40:04;5.80;;;3.92;;
7931;SDS011;4011;49.424;10.894;2023-06-24T05:45:26;4.80;;;4.20;;
7931;SDS011;4011;49.424;10.894;2023-06-24T05:50:49;4.95;;;3.72;;
7931;SDS011;4011;49.424;10.894;2023-06-24T05:56:14;5.75;;;3.67;;
7931;SDS011;4011;49.424;10.894;2023-06-24T06:01:36;5.63;;;4.03;;
7931;SDS011;4011;49.424;10.894;2023-06-24T06:06:59;5.10;;;4.40;;
7931;SDS011;4011;49.424;10.894;2023-06-24T06:12:21;5.18;;;3.60;;
7931;SDS011;4011;49.424;10.894;2023-06-24T06:17:42;5.53;;;3.97;;
7931;SDS011;4011;49.424;10.894;2023-06-24T06:23:05;5.47;;;3.63;;
7931;SDS011;4011;49.424;10.894;2023-06-24T06:28:29;5.40;;;3.85;;
7931;SDS011;4011;49.424;10.894;2023-06-24T06:33:54;4.85;;;3.63;;
7931;SDS011;4011;49.424;10.894;2023-06-24T06:39:17;5.90;;;3.70;;
7931;SDS011;4011;49.424;10.894;2023-06-24T06:44:38;4.55;;;3.33;;
7931;SDS011;4011;49.424;10.894;2023-06-24T06:50:00;5.25;;;3.92;;
7931;SDS011;4011;49.424;10.894;2023-06-24T06:55:23;4.60;;;3.50;;
7931;SDS011;4011;49.424;10.894;2023-06-24T07:00:44;5.05;;;3.47;;
7931;SDS011;4011;49.424;10.894;2023-06-24T07:06:06;5.45;;;3.80;;
7931;SDS011;4011;49.424;10.894;2023-06-24T07:11:30;4.80;;;3.78;;
7931;SDS011;4011;49.424;10.894;2023-06-24T07:16:51;4.72;;;3.30;;
7931;SDS011;4011;49.424;10.894;2023-06-24T07:22:13;4.45;;;3.33;;
7931;SDS011;4011;49.424;10.894;2023-06-24T07:27:36;5.10;;;3.28;;
7931;SDS011;4011;49.424;10.894;2023-06-24T07:32:58;5.25;;;3.55;;
7931;SDS011;4011;49.424;10.894;2023-06-24T07:38:25;5.28;;;3.97;;
7931;SDS011;4011;49.424;10.894;2023-06-24T07:43:49;4.90;;;3.45;;
7931;SDS011;4011;49.424;10.894;2023-06-24T07:49:10;4.82;;;3.38;;
7931;SDS011;4011;49.424;10.894;2023-06-24T07:54:32;4.90;;;3.50;;
7931;SDS011;4011;49.424;10.894;2023-06-24T07:59:55;4.63;;;3.53;;
7931;SDS011;4011;49.424;10.894;2023-06-24T08:05:17;5.45;;;3.70;;
7931;SDS011;4011;49.424;10.894;2023-06-24T08:10:40;5.35;;;3.40;;
7931;SDS011;4011;49.424;10.894;2023-06-24T08:16:04;5.10;;;3.33;;
7931;SDS011;4011;49.424;10.894;2023-06-24T08:21:25;4.80;;;3.83;;
7931;SDS011;4011;49.424;10.894;2023-06-24T08:26:47;5.18;;;3.35;;
7931;SDS011;4011;49.424;10.894;2023-06-24T08:32:09;5.50;;;3.42;;
7931;SDS011;4011;49.424;10.894;2023-06-24T08:37:31;4.80;;;3.25;;
7931;SDS011;4011;49.424;10.894;2023-06-24T08:42:53;5.50;;;3.92;;
7931;SDS011;4011;49.424;10.894;2023-06-24T08:48:17;4.20;;;3.13;;
7931;SDS011;4011;49.424;10.894;2023-06-24T08:53:39;4.00;;;2.90;;
7931;SDS011;4011;49.424;10.894;2023-06-24T08:59:02;5.10;;;3.38;;
7931;SDS011;4011;49.424;10.894;2023-06-24T09:04:26;5.18;;;3.50;;
7931;SDS011;4011;49.424;10.894;2023-06-24T09:09:48;4.80;;;3.45;;
7931;SDS011;4011;49.424;10.894;2023-06-24T09:15:13;3.85;;;2.85;;
7931;SDS011;4011;49.424;10.894;2023-06-24T09:20:37;4.93;;;3.30;;
7931;SDS011;4011;49.424;10.894;2023-06-24T09:26:04;4.35;;;3.28;;
7931;SDS011;4011;49.424;10.894;2023-06-24T09:31:26;4.22;;;3.00;;
7931;SDS011;4011;49.424;10.894;2023-06-24T09:36:52;4.10;;;3.13;;
7931;SDS011;4011;49.424;10.894;2023-06-24T09:42:14;4.55;;;3.03;;
7931;SDS011;4011;49.424;10.894;2023-06-24T09:47:36;4.60;;;3.55;;
7931;SDS011;4011;49.424;10.894;2023-06-24T09:52:59;4.13;;;3.10;;
7931;SDS011;4011;49.424;10.894;2023-06-24T09:58:21;4.15;;;3.17;;
7931;SDS011;4011;49.424;10.894;2023-06-24T10:03:43;4.53;;;3.30;;
7931;SDS011;4011;49.424;10.894;2023-06-24T10:09:07;4.18;;;2.88;;
7931;SDS011;4011;49.424;10.894;2023-06-24T10:14:29;4.55;;;3.35;;
7931;SDS011;4011;49.424;10.894;2023-06-24T10:19:53;4.30;;;3.05;;
7931;SDS011;4011;49.424;10.894;2023-06-24T10:25:20;3.80;;;2.83;;
7931;SDS011;4011;49.424;10.894;2023-06-24T10:30:53;4.22;;;3.50;;
7931;SDS011;4011;49.424;10.894;2023-06-24T10:47:38;4.40;;;3.22;;
7931;SDS011;4011;49.424;10.894;2023-06-24T10:53:00;4.40;;;3.20;;
7931;SDS011;4011;49.424;10.894;2023-06-24T10:58:27;4.00;;;3.33;;
7931;SDS011;4011;49.424;10.894;2023-06-24T11:03:50;4.20;;;3.22;;
7931;SDS011;4011;49.424;10.894;2023-06-24T11:09:11;4.32;;;3.13;;
7931;SDS011;4011;49.424;10.894;2023-06-24T11:14:33;4.10;;;3.20;;
7931;SDS011;4011;49.424;10.894;2023-06-24T11:19:56;4.10;;;3.10;;
7931;SDS011;4011;49.424;10.894;2023-06-24T11:25:18;4.20;;;3.22;;
7931;SDS011;4011;49.424;10.894;2023-06-24T11:30:40;3.70;;;2.88;;
7931;SDS011;4011;49.424;10.894;2023-06-24T11:36:08;4.10;;;2.90;;
7931;SDS011;4011;49.424;10.894;2023-06-24T11:41:29;4.30;;;3.13;;
7931;SDS011;4011;49.424;10.894;2023-06-24T11:46:51;4.03;;;3.10;;
7931;SDS011;4011;49.424;10.894;2023-06-24T11:52:14;3.95;;;2.83;;
7931;SDS011;4011;49.424;10.894;2023-06-24T11:57:49;4.07;;;3.00;;
7931;SDS011;4011;49.424;10.894;2023-06-24T12:03:11;4.88;;;3.42;;
7931;SDS011;4011;49.424;10.894;2023-06-24T12:08:34;4.00;;;3.00;;
7931;SDS011;4011;49.424;10.894;2023-06-24T12:13:56;4.45;;;3.20;;
7931;SDS011;4011;49.424;10.894;2023-06-24T12:19:17;3.78;;;2.83;;
7931;SDS011;4011;49.424;10.894;2023-06-24T12:24:42;3.60;;;2.92;;
7931;SDS011;4011;49.424;10.894;2023-06-24T12:30:04;3.80;;;2.85;;
7931;SDS011;4011;49.424;10.894;2023-06-24T12:35:26;4.15;;;3.03;;
7931;SDS011;4011;49.424;10.894;2023-06-24T12:40:49;3.70;;;2.70;;
7931;SDS011;4011;49.424;10.894;2023-06-24T12:46:12;4.35;;;3.20;;
7931;SDS011;4011;49.424;10.894;2023-06-24T12:51:34;3.83;;;2.95;;
7931;SDS011;4011;49.424;10.894;2023-06-24T12:56:58;3.83;;;2.78;;
7931;SDS011;4011;49.424;10.894;2023-06-24T13:02:24;3.92;;;2.80;;
7931;SDS011;4011;49.424;10.894;2023-06-24T13:07:45;4.32;;;3.13;;
7931;SDS011;4011;49.424;10.894;2023-06-24T13:13:08;4.25;;;3.25;;
7931;SDS011;4011;49.424;10.894;2023-06-24T13:18:32;3.70;;;2.85;;
7931;SDS011;4011;49.424;10.894;2023-06-24T13:24:13;3.60;;;2.83;;
7931;SDS011;4011;49.424;10.894;2023-06-24T13:29:51;4.10;;;2.83;;
7931;SDS011;4011;49.424;10.894;2023-06-24T13:35:17;3.53;;;2.63;;
7931;SDS011;4011;49.424;10.894;2023-06-24T13:40:42;4.00;;;3.10;;
7931;SDS011;4011;49.424;10.894;2023-06-24T13:46:22;4.15;;;3.00;;
7931;SDS011;4011;49.424;10.894;2023-06-24T13:51:53;3.92;;;2.83;;
7931;SDS011;4011;49.424;10.894;2023-06-24T13:57:22;3.58;;;2.67;;
7931;SDS011;4011;49.424;10.894;2023-06-24T14:02:45;4.05;;;2.70;;
7931;SDS011;4011;49.424;10.894;2023-06-24T14:08:08;3.58;;;2.53;;
7931;SDS011;4011;49.424;10.894;2023-06-24T14:13:33;4.20;;;3.20;;
7931;SDS011;4011;49.424;10.894;2023-06-24T14:18:58;3.75;;;2.75;;
7931;SDS011;4011;49.424;10.894;2023-06-24T14:24:23;3.95;;;2.63;;
7931;SDS011;4011;49.424;10.894;2023-06-24T14:29:59;4.22;;;3.17;;
7931;SDS011;4011;49.424;10.894;2023-06-24T14:35:22;3.80;;;2.80;;
7931;SDS011;4011;49.424;10.894;2023-06-24T14:40:43;3.63;;;2.83;;
7931;SDS011;4011;49.424;10.894;2023-06-24T14:46:06;4.50;;;2.95;;
7931;SDS011;4011;49.424;10.894;2023-06-24T14:51:33;4.07;;;3.22;;
7931;SDS011;4011;49.424;10.894;2023-06-24T14:56:57;3.75;;;2.95;;
7931;SDS011;4011;49.424;10.894;2023-06-24T15:02:18;3.45;;;2.42;;
7931;SDS011;4011;49.424;10.894;2023-06-24T15:07:42;3.60;;;2.80;;
7931;SDS011;4011;49.424;10.894;2023-06-24T15:13:05;4.05;;;2.88;;
7931;SDS011;4011;49.424;10.894;2023-06-24T15:18:28;3.63;;;2.63;;
7931;SDS011;4011;49.424;10.894;2023-06-24T15:23:55;3.78;;;2.80;;
7931;SDS011;4011;49.424;10.894;2023-06-24T15:29:16;3.30;;;2.50;;
7931;SDS011;4011;49.424;10.894;2023-06-24T15:34:42;3.80;;;3.13;;
7931;SDS011;4011;49.424;10.894;2023-06-24T15:40:05;3.90;;;3.00;;
7931;SDS011;4011;49.424;10.894;2023-06-24T15:45:27;3.55;;;2.53;;
7931;SDS011;4011;49.424;10.894;2023-06-24T15:50:49;3.72;;;2.67;;
7931;SDS011;4011;49.424;10.894;2023-06-24T15:56:12;4.03;;;3.00;;
7931;SDS011;4011;49.424;10.894;2023-06-24T16:01:34;3.70;;;2.80;;
7931;SDS011;4011;49.424;10.894;2023-06-24T16:06:55;3.47;;;2.55;;
7931;SDS011;4011;49.424;10.894;2023-06-24T16:12:18;3.92;;;2.90;;
7931;SDS011;4011;49.424;10.894;2023-06-24T16:17:43;3.83;;;2.70;;
7931;SDS011;4011;49.424;10.894;2023-06-24T16:23:04;4.35;;;2.90;;
7931;SDS011;4011;49.424;10.894;2023-06-24T16:28:27;4.00;;;2.95;;
7931;SDS011;4011;49.424;10.894;2023-06-24T16:33:49;3.63;;;2.60;;
7931;SDS011;4011;49.424;10.894;2023-06-24T16:39:10;3.63;;;2.78;;
7931;SDS011;4011;49.424;10.894;2023-06-24T16:44:34;3.85;;;3.08;;
7931;SDS011;4011;49.424;10.894;2023-06-24T16:49:57;3.90;;;2.72;;
7931;SDS011;4011;49.424;10.894;2023-06-24T16:55:21;3.65;;;2.65;;
7931;SDS011;4011;49.424;10.894;2023-06-24T17:00:45;3.97;;;2.88;;
7931;SDS011;4011;49.424;10.894;2023-06-24T17:06:06;4.15;;;3.28;;
7931;SDS011;4011;49.424;10.894;2023-06-24T17:11:28;3.65;;;2.60;;
7931;SDS011;4011;49.424;10.894;2023-06-24T17:16:51;3.78;;;2.67;;
7931;SDS011;4011;49.424;10.894;2023-06-24T17:22:13;3.72;;;2.75;;
7931;SDS011;4011;49.424;10.894;2023-06-24T17:27:34;3.70;;;3.08;;
7931;SDS011;4011;49.424;10.894;2023-06-24T17:32:57;3.80;;;2.90;;
7931;SDS011;4011;49.424;10.894;2023-06-24T17:38:19;3.78;;;2.60;;
7931;SDS011;4011;49.424;10.894;2023-06-24T17:43:40;4.10;;;2.85;;
7931;SDS011;4011;49.424;10.894;2023-06-24T17:49:03;4.05;;;2.92;;
7931;SDS011;4011;49.424;10.894;2023-06-24T17:54:25;4.03;;;3.13;;
7931;SDS011;4011;49.424;10.894;2023-06-24T17:59:49;4.22;;;2.78;;
7931;SDS011;4011;49.424;10.894;2023-06-24T18:05:12;3.78;;;2.60;;
7931;SDS011;4011;49.424;10.894;2023-06-24T18:10:33;3.95;;;2.75;;
7931;SDS011;4011;49.424;10.894;2023-06-24T18:15:56;3.63;;;3.13;;
7931;SDS011;4011;49.424;10.894;2023-06-24T18:21:19;3.50;;;2.60;;
7931;SDS011;4011;49.424;10.894;2023-06-24T18:26:40;3.80;;;2.63;;
7931;SDS011;4011;49.424;10.894;2023-06-24T18:32:02;3.78;;;2.70;;
7931;SDS011;4011;49.424;10.894;2023-06-24T18:37:25;3.70;;;3.15;;
7931;SDS011;4011;49.424;10.894;2023-06-24T18:42:46;4.35;;;3.30;;
7931;SDS011;4011;49.424;10.894;2023-06-24T18:48:08;3.60;;;2.70;;
7931;SDS011;4011;49.424;10.894;2023-06-24T18:53:33;3.72;;;2.80;;
7931;SDS011;4011;49.424;10.894;2023-06-24T18:58:54;4.00;;;3.08;;
7931;SDS011;4011;49.424;10.894;2023-06-24T19:04:16;4.10;;;3.25;;
7931;SDS011;4011;49.424;10.894;2023-06-24T19:09:39;4.60;;;2.88;;
7931;SDS011;4011;49.424;10.894;2023-06-24T19:15:00;4.13;;;3.00;;
7931;SDS011;4011;49.424;10.894;2023-06-24T19:20:22;3.70;;;2.88;;
7931;SDS011;4011;49.424;10.894;2023-06-24T19:25:50;4.20;;;3.10;;
7931;SDS011;4011;49.424;10.894;2023-06-24T19:31:12;3.70;;;2.60;;
7931;SDS011;4011;49.424;10.894;2023-06-24T19:36:46;3.65;;;2.83;;
7931;SDS011;4011;49.424;10.894;2023-06-24T19:42:09;4.75;;;3.60;;
7931;SDS011;4011;49.424;10.894;2023-06-24T19:47:30;3.95;;;2.85;;
7931;SDS011;4011;49.424;10.894;2023-06-24T19:52:52;3.70;;;2.70;;
7931;SDS011;4011;49.424;10.894;2023-06-24T19:58:15;4.15;;;2.97;;
7931;SDS011;4011;49.424;10.894;2023-06-24T20:03:36;3.85;;;3.28;;
7931;SDS011;4011;49.424;10.894;2023-06-24T20:08:57;4.20;;;3.42;;
7931;SDS011;4011;49.424;10.894;2023-06-24T20:14:20;4.75;;;3.40;;
7931;SDS011;4011;49.424;10.894;2023-06-24T20:19:42;5.03;;;3.03;;
7931;SDS011;4011;49.424;10.894;2023-06-24T20:25:05;4.53;;;3.05;;
7931;SDS011;4011;49.424;10.894;2023-06-24T20:30:28;5.00;;;3.80;;
7931;SDS011;4011;49.424;10.894;2023-06-24T20:35:50;3.90;;;2.80;;
7931;SDS011;4011;49.424;10.894;2023-06-24T20:41:19;4.70;;;3.35;;
7931;SDS011;4011;49.424;10.894;2023-06-24T20:46:42;4.85;;;3.40;;
7931;SDS011;4011;49.424;10.894;2023-06-24T20:52:04;4.82;;;3.50;;
7931;SDS011;4011;49.424;10.894;2023-06-24T20:57:25;4.20;;;2.95;;
7931;SDS011;4011;49.424;10.894;2023-06-24T21:02:50;4.32;;;3.20;;
7931;SDS011;4011;49.424;10.894;2023-06-24T21:08:11;4.45;;;3.58;;
7931;SDS011;4011;49.424;10.894;2023-06-24T21:13:34;4.50;;;3.90;;
7931;SDS011;4011;49.424;10.894;2023-06-24T21:18:57;5.05;;;3.40;;
7931;SDS011;4011;49.424;10.894;2023-06-24T21:24:18;4.38;;;3.10;;
7931;SDS011;4011;49.424;10.894;2023-06-24T21:29:39;4.88;;;3.50;;
7931;SDS011;4011;49.424;10.894;2023-06-24T21:35:02;5.30;;;4.07;;
7931;SDS011;4011;49.424;10.894;2023-06-24T21:40:24;4.60;;;3.63;;
7931;SDS011;4011;49.424;10.894;2023-06-24T21:45:45;5.07;;;3.55;;
7931;SDS011;4011;49.424;10.894;2023-06-24T21:51:08;4.95;;;3.42;;
7931;SDS011;4011;49.424;10.894;2023-06-24T21:56:29;5.32;;;3.92;;
7931;SDS011;4011;49.424;10.894;2023-06-24T22:01:51;4.93;;;4.25;;
7931;SDS011;4011;49.424;10.894;2023-06-24T22:07:14;5.75;;;3.85;;
7931;SDS011;4011;49.424;10.894;2023-06-24T22:12:35;4.55;;;3.60;;
7931;SDS011;4011;49.424;10.894;2023-06-24T22:18:00;5.20;;;3.65;;
7931;SDS011;4011;49.424;10.894;2023-06-24T22:23:23;4.75;;;4.03;;
7931;SDS011;4011;49.424;10.894;2023-06-24T22:28:45;5.28;;;3.78;;
7931;SDS011;4011;49.424;10.894;2023-06-24T22:34:11;4.47;;;3.53;;
7931;SDS011;4011;49.424;10.894;2023-06-24T22:39:37;5.20;;;4.20;;
7931;SDS011;4011;49.424;10.894;2023-06-24T22:45:03;4.75;;;3.72;;
7931;SDS011;4011;49.424;10.894;2023-06-24T22:50:25;5.03;;;3.92;;
7931;SDS011;4011;49.424;10.894;2023-06-24T22:55:51;6.13;;;4.15;;
7931;SDS011;4011;49.424;10.894;2023-06-24T23:01:17;5.63;;;4.68;;
7931;SDS011;4011;49.424;10.894;2023-06-24T23:06:39;5.43;;;4.00;;
7931;SDS011;4011;49.424;10.894;2023-06-24T23:12:14;5.60;;;4.10;;
7931;SDS011;4011;49.424;10.894;2023-06-24T23:17:49;5.00;;;4.35;;
7931;SDS011;4011;49.424;10.894;2023-06-24T23:23:36;4.97;;;3.65;;
7931;SDS011;4011;49.424;10.894;2023-06-24T23:29:13;6.15;;;4.43;;
7931;SDS011;4011;49.424;10.894;2023-06-24T23:34:40;5.68;;;4.22;;
7931;SDS011;4011;49.424;10.894;2023-06-24T23:40:02;5.72;;;3.83;;
7931;SDS011;4011;49.424;10.894;2023-06-24T23:45:27;5.22;;;4.35;;
7931;SDS011;4011;49.424;10.894;2023-06-24T23:50:48;6.18;;;4.55;;
7931;SDS011;4011;49.424;10.894;2023-06-24T23:56:10;6.38;;;4.40;;
